createdAt,value
2023-01-26T00:00:29.251Z,5.45
2023-01-26T00:03:01.295Z,5.92
2023-01-26T00:05:33.476Z,4.90
2023-01-26T00:08:05.983Z,5.60
2023-01-26T00:10:44.281Z,6.08
2023-01-26T00:13:16.393Z,4.83
2023-01-26T00:15:48.945Z,6.90
2023-01-26T00:18:21.025Z,4.53
2023-01-26T00:21:01.402Z,5.17
2023-01-26T00:23:35.743Z,5.50
2023-01-26T00:26:09.016Z,4.53
2023-01-26T00:31:16.349Z,5.67
2023-01-26T00:33:48.911Z,5.03
2023-01-26T00:36:21.416Z,6.67
2023-01-26T00:38:53.672Z,5.65
2023-01-26T00:41:43.441Z,5.75
2023-01-26T00:44:15.606Z,6.17
2023-01-26T00:46:47.764Z,5.65
2023-01-26T00:49:19.753Z,5.60
2023-01-26T00:51:51.750Z,4.10
2023-01-26T00:54:23.939Z,4.90
2023-01-26T00:56:56.838Z,5.25
2023-01-26T00:59:29.925Z,6.80
2023-01-26T01:02:02.919Z,5.87
2023-01-26T01:04:35.097Z,5.83
2023-01-26T01:07:07.604Z,5.00
2023-01-26T01:09:40.716Z,6.13
2023-01-26T01:12:12.914Z,4.78
2023-01-26T01:14:45.496Z,4.95
2023-01-26T01:17:18.688Z,5.70
2023-01-26T01:19:50.895Z,5.00
2023-01-26T01:22:24.506Z,4.65
2023-01-26T01:24:57.112Z,5.55
2023-01-26T01:27:29.179Z,5.92
2023-01-26T01:30:01.254Z,5.55
2023-01-26T01:32:34.876Z,4.95
2023-01-26T01:35:07.406Z,5.22
2023-01-26T01:37:39.844Z,5.17
2023-01-26T01:40:15.236Z,4.47
2023-01-26T01:42:50.722Z,3.22
2023-01-26T01:45:31.787Z,5.60
2023-01-26T01:48:06.551Z,5.78
2023-01-26T01:50:40.859Z,5.67
2023-01-26T01:53:15.768Z,5.62
2023-01-26T01:55:48.448Z,5.72
2023-01-26T01:58:21.438Z,5.28
2023-01-26T02:00:53.506Z,5.12
2023-01-26T02:03:26.693Z,4.40
2023-01-26T02:06:13.692Z,4.93
2023-01-26T02:08:48.563Z,5.15
2023-01-26T02:11:32.532Z,4.95
2023-01-26T02:14:08.925Z,5.37
2023-01-26T02:16:41.080Z,5.25
2023-01-26T02:19:19.137Z,4.80
2023-01-26T02:21:53.309Z,5.00
2023-01-26T02:26:59.053Z,4.70
2023-01-26T02:29:31.576Z,5.28
2023-01-26T02:32:03.732Z,4.72
2023-01-26T02:34:36.742Z,5.40
2023-01-26T02:37:12.075Z,4.17
2023-01-26T02:39:48.645Z,5.75
2023-01-26T02:42:38.486Z,5.30
2023-01-26T02:45:13.948Z,4.95
2023-01-26T02:47:46.481Z,5.20
2023-01-26T02:50:18.878Z,5.28
2023-01-26T02:52:50.805Z,5.35
2023-01-26T02:55:26.641Z,5.33
2023-01-26T02:58:01.686Z,4.65
2023-01-26T03:00:38.475Z,4.90
2023-01-26T03:03:22.757Z,5.83
2023-01-26T03:05:54.928Z,5.17
2023-01-26T03:08:27.044Z,5.62
2023-01-26T03:10:59.110Z,5.55
2023-01-26T03:13:31.125Z,4.58
2023-01-26T03:16:07.333Z,4.83
2023-01-26T03:18:57.731Z,4.28
2023-01-26T03:21:47.802Z,5.25
2023-01-26T03:24:38.070Z,5.12
2023-01-26T03:27:30.109Z,5.30
2023-01-26T03:30:04.242Z,5.40
2023-01-26T03:32:36.486Z,4.80
2023-01-26T03:35:11.725Z,5.78
2023-01-26T03:37:45.377Z,5.65
2023-01-26T03:40:37.152Z,5.70
2023-01-26T03:43:30.792Z,5.25
2023-01-26T03:46:22.723Z,4.67
2023-01-26T03:49:12.782Z,6.05
2023-01-26T03:52:02.868Z,6.15
2023-01-26T03:54:53.383Z,5.10
2023-01-26T03:57:26.360Z,3.98
2023-01-26T03:59:58.279Z,6.05
2023-01-26T04:02:48.394Z,5.30
2023-01-26T04:05:38.682Z,5.75
2023-01-26T04:08:27.530Z,5.75
2023-01-26T04:11:01.323Z,5.67
2023-01-26T04:13:51.810Z,5.70
2023-01-26T04:16:46.900Z,5.17
2023-01-26T04:19:37.439Z,5.58
2023-01-26T04:22:09.821Z,4.83
2023-01-26T04:24:42.349Z,5.22
2023-01-26T04:27:14.995Z,5.33
2023-01-26T04:29:48.175Z,5.47
2023-01-26T04:32:20.727Z,5.83
2023-01-26T04:34:53.180Z,3.87
2023-01-26T04:37:27.740Z,5.28
2023-01-26T04:40:01.448Z,5.65
2023-01-26T04:42:34.763Z,6.08
2023-01-26T04:45:09.359Z,5.62
2023-01-26T04:47:41.980Z,6.30
2023-01-26T04:50:14.596Z,5.15
2023-01-26T04:52:47.322Z,5.87
2023-01-26T04:55:20.778Z,5.33
2023-01-26T04:57:53.097Z,5.87
2023-01-26T05:00:26.080Z,6.05
2023-01-26T05:03:00.945Z,6.67
2023-01-26T05:08:07.755Z,5.87
2023-01-26T05:10:40.110Z,6.50
2023-01-26T05:13:22.948Z,6.17
2023-01-26T05:16:09.422Z,7.17
2023-01-26T05:18:47.900Z,7.90
2023-01-26T05:21:27.739Z,6.17
2023-01-26T05:24:00.951Z,5.78
2023-01-26T05:26:35.430Z,4.92
2023-01-26T05:29:09.318Z,5.72
2023-01-26T05:31:42.213Z,5.28
2023-01-26T05:34:15.134Z,6.70
2023-01-26T05:36:47.533Z,6.45
2023-01-26T05:39:20.276Z,6.20
2023-01-26T05:41:53.039Z,5.60
2023-01-26T05:44:27.161Z,6.67
2023-01-26T05:49:33.380Z,5.95
2023-01-26T05:52:09.855Z,6.87
2023-01-26T05:54:44.084Z,5.28
2023-01-26T05:57:17.847Z,4.55
2023-01-26T05:59:51.984Z,5.10
2023-01-26T06:02:24.269Z,5.72
2023-01-26T06:04:56.943Z,5.95
2023-01-26T06:07:29.201Z,4.90
2023-01-26T06:10:15.343Z,7.05
2023-01-26T06:15:21.708Z,5.67
2023-01-26T06:17:56.001Z,5.40
2023-01-26T06:20:28.538Z,6.40
2023-01-26T06:23:02.665Z,5.60
2023-01-26T06:25:36.464Z,6.50
2023-01-26T06:28:09.454Z,6.25
2023-01-26T06:30:41.991Z,6.03
2023-01-26T06:33:15.901Z,6.37
2023-01-26T06:35:48.376Z,6.97
2023-01-26T06:38:22.276Z,5.50
2023-01-26T06:40:54.891Z,6.53
2023-01-26T06:43:28.312Z,6.40
2023-01-26T06:46:03.037Z,6.03
2023-01-26T06:48:37.082Z,6.03
2023-01-26T06:51:21.339Z,6.58
2023-01-26T06:53:59.950Z,6.60
2023-01-26T06:56:43.967Z,6.42
2023-01-26T06:59:37.443Z,6.55
2023-01-26T07:02:26.047Z,6.35
2023-01-26T07:04:58.758Z,6.10
2023-01-26T07:07:32.653Z,4.47
2023-01-26T07:10:07.933Z,6.80
2023-01-26T07:12:41.840Z,6.67
2023-01-26T07:15:15.144Z,6.53
2023-01-26T07:17:47.348Z,7.07
2023-01-26T07:20:20.071Z,6.22
2023-01-26T07:22:53.415Z,5.97
2023-01-26T07:25:27.054Z,5.92
2023-01-26T07:28:02.676Z,6.12
2023-01-26T07:30:35.276Z,6.42
2023-01-26T07:33:10.978Z,6.12
2023-01-26T07:35:43.273Z,7.10
2023-01-26T07:38:15.910Z,6.53
2023-01-26T07:40:48.036Z,7.10
2023-01-26T07:43:20.679Z,7.42
2023-01-26T07:45:55.725Z,7.17
2023-01-26T07:48:30.543Z,6.70
2023-01-26T07:51:04.714Z,3.92
2023-01-26T07:53:38.482Z,7.10
2023-01-26T07:56:14.112Z,6.17
2023-01-26T07:58:52.929Z,6.20
2023-01-26T08:01:25.962Z,6.47
2023-01-26T08:03:58.735Z,7.25
2023-01-26T08:06:33.094Z,5.20
2023-01-26T08:09:05.727Z,6.30
2023-01-26T08:11:38.976Z,6.12
2023-01-26T08:14:12.047Z,6.40
2023-01-26T08:16:45.677Z,6.05
2023-01-26T08:19:18.205Z,5.78
2023-01-26T08:21:52.028Z,6.80
2023-01-26T08:24:24.618Z,4.60
2023-01-26T08:26:57.822Z,6.92
2023-01-26T08:29:30.932Z,6.42
2023-01-26T08:32:03.342Z,5.62
2023-01-26T08:34:35.747Z,6.60
2023-01-26T08:37:08.024Z,6.42
2023-01-26T08:39:40.460Z,5.67
2023-01-26T08:42:13.429Z,6.30
2023-01-26T08:44:45.563Z,6.10
2023-01-26T08:47:17.957Z,6.58
2023-01-26T08:49:50.093Z,4.83
2023-01-26T08:52:22.364Z,5.03
2023-01-26T08:54:54.842Z,5.78
2023-01-26T08:57:27.284Z,5.67
2023-01-26T08:59:59.662Z,5.80
2023-01-26T09:02:33.676Z,4.40
2023-01-26T09:05:06.609Z,5.67
2023-01-26T09:07:39.864Z,5.60
2023-01-26T09:10:13.277Z,4.97
2023-01-26T09:12:45.658Z,4.50
2023-01-26T09:15:18.701Z,5.90
2023-01-26T09:17:51.960Z,5.53
2023-01-26T09:20:25.062Z,5.50
2023-01-26T09:22:57.999Z,5.20
2023-01-26T09:25:30.265Z,4.72
2023-01-26T09:28:05.665Z,6.17
2023-01-26T09:30:39.265Z,5.50
2023-01-26T09:33:11.769Z,5.60
2023-01-26T09:35:44.320Z,5.35
2023-01-26T09:38:16.887Z,5.10
2023-01-26T09:40:58.298Z,6.80
2023-01-26T09:43:48.286Z,5.33
2023-01-26T09:46:29.181Z,5.72
2023-01-26T09:49:12.816Z,5.67
2023-01-26T09:51:47.794Z,4.17
2023-01-26T09:54:26.496Z,4.70
2023-01-26T09:57:00.720Z,6.90
2023-01-26T10:02:29.535Z,5.47
2023-01-26T10:05:04.577Z,5.72
2023-01-26T10:07:36.645Z,5.55
2023-01-26T10:10:10.780Z,5.50
2023-01-26T10:12:43.984Z,5.37
2023-01-26T10:15:39.270Z,5.30
2023-01-26T10:18:26.358Z,4.78
2023-01-26T10:21:00.859Z,5.33
2023-01-26T10:23:35.170Z,5.83
2023-01-26T10:26:22.671Z,6.03
2023-01-26T10:28:54.979Z,5.20
2023-01-26T10:31:30.437Z,5.55
2023-01-26T10:34:11.542Z,4.90
2023-01-26T10:36:46.143Z,4.90
2023-01-26T10:39:19.491Z,5.25
2023-01-26T10:42:03.561Z,5.12
2023-01-26T10:44:38.680Z,5.05
2023-01-26T10:47:18.554Z,4.97
2023-01-26T10:49:50.867Z,5.87
2023-01-26T10:52:28.403Z,5.50
2023-01-26T10:55:12.972Z,5.35
2023-01-26T10:57:45.433Z,5.08
2023-01-26T11:00:29.685Z,5.78
2023-01-26T11:03:08.966Z,5.33
2023-01-26T11:05:41.290Z,4.05
2023-01-26T11:08:36.123Z,5.62
2023-01-26T11:11:11.843Z,5.87
2023-01-26T11:13:44.191Z,6.60
2023-01-26T11:16:25.578Z,4.83
2023-01-26T11:19:00.657Z,6.22
2023-01-26T11:21:47.699Z,5.42
2023-01-26T11:24:31.498Z,5.95
2023-01-26T11:27:39.379Z,4.17
2023-01-26T11:30:37.987Z,6.35
2023-01-26T11:33:21.954Z,6.45
2023-01-26T11:36:16.225Z,8.60
2023-01-26T11:39:05.980Z,5.70
2023-01-26T11:41:47.123Z,6.12
2023-01-26T11:44:38.114Z,5.62
2023-01-26T11:47:16.066Z,7.05
2023-01-26T11:50:00.319Z,5.22
2023-01-26T11:52:54.405Z,5.15
2023-01-26T11:55:50.036Z,6.47
2023-01-26T11:58:27.839Z,4.78
2023-01-26T12:01:02.917Z,6.22
2023-01-26T12:03:43.578Z,6.97
2023-01-26T12:06:33.626Z,6.42
2023-01-26T12:09:23.431Z,7.35
2023-01-26T12:11:58.457Z,6.30
2023-01-26T12:14:33.628Z,6.47
2023-01-26T12:17:40.344Z,6.45
2023-01-26T12:20:27.683Z,7.40
2023-01-26T12:23:11.645Z,7.78
2023-01-26T12:25:49.497Z,7.00
2023-01-26T12:28:36.020Z,7.35
2023-01-26T12:31:19.635Z,7.17
2023-01-26T12:33:54.892Z,6.50
2023-01-26T12:36:39.025Z,7.58
2023-01-26T12:39:14.553Z,6.45
2023-01-26T12:41:58.625Z,8.13
2023-01-26T12:44:45.644Z,7.50
2023-01-26T12:47:32.616Z,7.92
2023-01-26T12:50:25.306Z,7.70
2023-01-26T12:53:12.014Z,7.95
2023-01-26T12:55:47.294Z,9.03
2023-01-26T12:58:30.986Z,7.70
2023-01-26T13:01:09.047Z,7.62
2023-01-26T13:04:02.167Z,7.70
2023-01-26T13:06:35.125Z,8.18
2023-01-26T13:09:23.758Z,6.47
2023-01-26T13:12:02.274Z,8.93
2023-01-26T13:14:46.280Z,8.00
2023-01-26T13:17:22.418Z,8.68
2023-01-26T13:20:00.376Z,8.48
2023-01-26T13:22:41.640Z,5.22
2023-01-26T13:25:33.837Z,10.68
2023-01-26T13:28:09.225Z,7.87
2023-01-26T13:30:46.495Z,8.28
2023-01-26T13:33:24.681Z,8.50
2023-01-26T13:35:58.266Z,9.03
2023-01-26T13:38:42.974Z,8.15
2023-01-26T13:41:23.111Z,9.98
2023-01-26T13:44:00.804Z,9.80
2023-01-26T13:46:42.282Z,7.10
2023-01-26T13:49:26.728Z,8.48
2023-01-26T13:51:58.726Z,8.50
2023-01-26T13:54:31.123Z,8.08
2023-01-26T13:57:08.565Z,9.70
2023-01-26T13:59:52.529Z,7.17
2023-01-26T14:02:34.195Z,8.65
2023-01-26T14:05:06.926Z,8.55
2023-01-26T14:07:45.926Z,9.60
2023-01-26T14:10:22.228Z,8.90
2023-01-26T14:12:57.687Z,8.95
2023-01-26T14:15:32.883Z,7.50
2023-01-26T14:18:06.595Z,7.45
2023-01-26T14:20:40.936Z,8.25
2023-01-26T14:23:21.865Z,8.43
2023-01-26T14:26:03.389Z,4.30
2023-01-26T14:28:39.129Z,7.87
2023-01-26T14:31:25.815Z,9.60
2023-01-26T14:34:00.588Z,8.63
2023-01-26T14:36:35.653Z,8.38
2023-01-26T14:39:22.207Z,7.60
2023-01-26T14:41:54.692Z,7.45
2023-01-26T14:44:27.254Z,9.03
2023-01-26T14:47:05.090Z,7.97
2023-01-26T14:49:55.681Z,8.00
2023-01-26T14:52:30.548Z,7.45
2023-01-26T14:55:20.648Z,8.93
2023-01-26T14:57:54.134Z,9.03
2023-01-26T15:00:37.610Z,8.68
2023-01-26T15:03:15.566Z,7.57
2023-01-26T15:05:47.768Z,8.45
2023-01-26T15:08:23.961Z,6.92
2023-01-26T15:11:21.097Z,8.30
2023-01-26T15:13:57.248Z,7.12
2023-01-26T15:16:29.342Z,7.95
2023-01-26T15:19:08.130Z,8.88
2023-01-26T15:21:44.324Z,8.88
2023-01-26T15:24:17.617Z,9.25
2023-01-26T15:26:51.575Z,7.50
2023-01-26T15:29:32.798Z,7.15
2023-01-26T15:32:05.759Z,7.80
2023-01-26T15:34:42.543Z,8.13
2023-01-26T15:37:32.916Z,8.08
2023-01-26T15:40:05.694Z,7.25
2023-01-26T15:42:38.267Z,6.42
2023-01-26T15:45:25.770Z,8.05
2023-01-26T15:47:58.132Z,7.50
2023-01-26T15:50:30.411Z,6.42
2023-01-26T15:53:02.740Z,8.33
2023-01-26T15:55:35.719Z,8.58
2023-01-26T15:58:08.892Z,5.92
2023-01-26T16:00:41.232Z,8.38
2023-01-26T16:03:16.091Z,8.78
2023-01-26T16:05:49.242Z,8.45
2023-01-26T16:08:22.199Z,8.35
2023-01-26T16:10:57.282Z,7.27
2023-01-26T16:13:29.852Z,6.87
2023-01-26T16:16:04.402Z,7.42
2023-01-26T16:18:37.082Z,8.25
2023-01-26T16:21:20.904Z,8.38
2023-01-26T16:23:53.007Z,8.23
2023-01-26T16:26:27.362Z,7.62
2023-01-26T16:29:00.181Z,8.75
2023-01-26T16:31:36.902Z,9.30
2023-01-26T16:34:11.049Z,6.55
2023-01-26T16:36:43.584Z,8.65
2023-01-26T16:39:15.724Z,7.90
2023-01-26T16:41:48.407Z,8.60
2023-01-26T16:44:22.093Z,9.18
2023-01-26T16:46:54.699Z,7.72
2023-01-26T16:49:27.175Z,8.48
2023-01-26T16:51:59.498Z,7.87
2023-01-26T16:54:31.600Z,7.35
2023-01-26T16:57:03.597Z,4.62
2023-01-26T16:59:35.814Z,8.10
2023-01-26T17:02:13.349Z,7.28
2023-01-26T17:04:46.127Z,7.75
2023-01-26T17:07:18.618Z,7.30
2023-01-26T17:09:51.155Z,6.37
2023-01-26T17:12:23.233Z,7.95
2023-01-26T17:14:55.420Z,7.65
2023-01-26T17:17:27.506Z,7.05
2023-01-26T17:20:17.613Z,8.50
2023-01-26T17:22:35.366Z,7.95
2023-01-26T17:25:08.317Z,7.35
2023-01-26T17:27:40.903Z,7.50
2023-01-26T17:30:27.614Z,6.62
2023-01-26T17:33:00.053Z,8.13
2023-01-26T17:35:32.205Z,7.90
2023-01-26T17:38:04.642Z,7.53
2023-01-26T17:40:36.890Z,7.33
2023-01-26T17:43:09.245Z,8.05
2023-01-26T17:45:41.585Z,6.97
2023-01-26T17:48:14.998Z,7.53
2023-01-26T17:50:54.987Z,7.83
2023-01-26T17:53:28.146Z,7.03
2023-01-26T17:56:00.633Z,7.90
2023-01-26T17:58:32.931Z,7.83
2023-01-26T18:01:06.301Z,7.95
2023-01-26T18:03:43.498Z,8.10
2023-01-26T18:06:16.390Z,8.08
2023-01-26T18:08:48.729Z,7.35
2023-01-26T18:11:21.027Z,7.60
2023-01-26T18:13:55.474Z,8.63
2023-01-26T18:16:28.119Z,7.53
2023-01-26T18:19:04.660Z,7.83
2023-01-26T18:21:37.078Z,7.65
2023-01-26T18:24:09.383Z,5.47
2023-01-26T18:26:41.664Z,7.17
2023-01-26T18:29:14.899Z,8.35
2023-01-26T18:31:48.369Z,8.37
2023-01-26T18:34:20.715Z,7.53
2023-01-26T18:36:52.900Z,8.60
2023-01-26T18:39:24.908Z,7.65
2023-01-26T18:41:56.876Z,7.33
2023-01-26T18:44:28.952Z,8.28
2023-01-26T18:47:00.900Z,7.60
2023-01-26T18:49:32.959Z,7.05
2023-01-26T18:52:05.291Z,7.85
2023-01-26T18:54:37.636Z,7.45
2023-01-26T18:57:10.611Z,6.83
2023-01-26T18:59:43.008Z,7.10
2023-01-26T19:02:16.417Z,7.53
2023-01-26T19:04:48.512Z,7.65
2023-01-26T19:07:21.266Z,6.87
2023-01-26T19:09:53.641Z,6.00
2023-01-26T19:12:25.856Z,7.20
2023-01-26T19:14:58.134Z,7.83
2023-01-26T19:17:30.480Z,7.15
2023-01-26T19:20:04.157Z,7.55
2023-01-26T19:22:35.878Z,5.70
2023-01-26T19:25:08.240Z,8.15
2023-01-26T19:27:40.661Z,7.50
2023-01-26T19:30:13.415Z,7.37
2023-01-26T19:33:03.522Z,7.42
2023-01-26T19:35:38.278Z,7.92
2023-01-26T19:38:10.139Z,7.10
2023-01-26T19:40:43.975Z,6.17
2023-01-26T19:43:18.647Z,6.75
2023-01-26T19:45:55.911Z,7.45
2023-01-26T19:48:29.526Z,7.72
2023-01-26T19:51:04.660Z,7.90
2023-01-26T19:53:39.887Z,7.78
2023-01-26T19:56:14.116Z,7.58
2023-01-26T19:58:51.339Z,7.00
2023-01-26T20:01:24.436Z,6.87
2023-01-26T20:04:00.231Z,6.13
2023-01-26T20:06:34.999Z,7.70
2023-01-26T20:09:08.763Z,7.85
2023-01-26T20:11:40.977Z,7.78
2023-01-26T20:14:12.988Z,7.00
2023-01-26T20:16:45.342Z,7.03
2023-01-26T20:19:18.310Z,7.35
2023-01-26T20:21:51.198Z,7.40
2023-01-26T20:24:23.287Z,6.80
2023-01-26T20:26:55.608Z,7.15
2023-01-26T20:29:27.645Z,7.22
2023-01-26T20:32:00.385Z,7.15
2023-01-26T20:34:32.440Z,6.95
2023-01-26T20:37:04.937Z,6.90
2023-01-26T20:39:37.327Z,6.95
2023-01-26T20:42:10.977Z,6.75
2023-01-26T20:44:44.523Z,7.72
2023-01-26T20:47:16.489Z,7.28
2023-01-26T20:49:48.405Z,7.85
2023-01-26T20:52:21.918Z,6.05
2023-01-26T20:54:54.035Z,7.70
2023-01-26T20:57:26.119Z,6.83
2023-01-26T20:59:58.044Z,6.78
2023-01-26T21:02:30.103Z,6.70
2023-01-26T21:05:02.801Z,7.33
2023-01-26T21:07:34.865Z,7.45
2023-01-26T21:10:07.343Z,6.95
2023-01-26T21:12:39.540Z,6.50
2023-01-26T21:15:12.207Z,7.47
2023-01-26T21:17:44.308Z,6.30
2023-01-26T21:20:16.625Z,7.12
2023-01-26T21:22:48.834Z,6.80
2023-01-26T21:25:21.253Z,6.45
2023-01-26T21:27:56.465Z,7.08
2023-01-26T21:30:28.651Z,7.08
2023-01-26T21:33:00.708Z,7.62
2023-01-26T21:35:32.782Z,6.72
2023-01-26T21:38:04.891Z,7.33
2023-01-26T21:40:37.072Z,7.05
2023-01-26T21:43:09.121Z,7.12
2023-01-26T21:45:54.068Z,7.85
2023-01-26T21:48:31.083Z,7.17
2023-01-26T21:51:21.506Z,6.83
2023-01-26T21:53:53.640Z,6.33
2023-01-26T21:56:25.588Z,6.28
2023-01-26T21:59:04.477Z,6.47
2023-01-26T22:01:48.336Z,6.53
2023-01-26T22:04:23.644Z,6.45
2023-01-26T22:06:56.865Z,7.08
2023-01-26T22:09:30.109Z,6.70
2023-01-26T22:12:03.087Z,6.78
2023-01-26T22:14:35.201Z,6.80
2023-01-26T22:17:07.499Z,6.87
2023-01-26T22:19:39.903Z,6.83
2023-01-26T22:22:12.793Z,6.45
2023-01-26T22:24:44.967Z,6.22
2023-01-26T22:27:17.069Z,6.80
2023-01-26T22:29:49.284Z,7.22
2023-01-26T22:32:21.464Z,7.20
2023-01-26T22:34:53.688Z,5.30
2023-01-26T22:37:25.651Z,6.92
2023-01-26T22:39:58.048Z,5.97
2023-01-26T22:42:30.514Z,4.87
2023-01-26T22:45:02.587Z,6.72
2023-01-26T22:47:36.278Z,6.95
2023-01-26T22:50:08.932Z,7.20
2023-01-26T22:52:40.994Z,7.00
2023-01-26T22:55:13.171Z,6.85
2023-01-26T22:57:45.492Z,7.08
2023-01-26T23:00:17.933Z,6.90
2023-01-26T23:02:50.177Z,6.80
2023-01-26T23:05:22.379Z,6.62
2023-01-26T23:07:54.772Z,7.03
2023-01-26T23:10:27.201Z,6.10
2023-01-26T23:12:59.206Z,6.78
2023-01-26T23:15:31.144Z,7.20
2023-01-26T23:18:03.192Z,6.50
2023-01-26T23:20:35.428Z,6.42
2023-01-26T23:23:07.463Z,5.08
2023-01-26T23:25:51.587Z,5.53
2023-01-26T23:30:57.983Z,6.40
2023-01-26T23:33:32.021Z,6.17
2023-01-26T23:36:05.041Z,5.53
2023-01-26T23:38:37.617Z,6.03
2023-01-26T23:41:09.803Z,5.03
2023-01-26T23:43:42.082Z,6.47
2023-01-26T23:46:14.261Z,4.90
2023-01-26T23:48:46.268Z,5.30
2023-01-26T23:51:18.331Z,4.58
2023-01-26T23:53:50.477Z,5.12
2023-01-26T23:56:22.618Z,5.12
2023-01-26T23:58:55.015Z,6.03
